sensor_id;sensor_type;location;lat;lon;timestamp;P1;durP1;ratioP1;P2;durP2;ratioP2
50161;SDS011;36061;48.116;11.612;2024-03-23T00:53:47;2.27;;;1.60;;
50161;SDS011;36061;48.116;11.612;2024-03-23T00:56:15;2.23;;;1.60;;
50161;SDS011;36061;48.116;11.612;2024-03-23T00:58:42;3.63;;;2.30;;
50161;SDS011;36061;48.116;11.612;2024-03-23T01:01:09;2.00;;;1.80;;
50161;SDS011;36061;48.116;11.612;2024-03-23T01:03:37;2.83;;;2.13;;
50161;SDS011;36061;48.116;11.612;2024-03-23T01:06:04;1.93;;;1.77;;
50161;SDS011;36061;48.116;11.612;2024-03-23T01:08:31;2.20;;;1.60;;
50161;SDS011;36061;48.116;11.612;2024-03-23T01:11:00;2.57;;;1.90;;
50161;SDS011;36061;48.116;11.612;2024-03-23T01:13:28;2.73;;;1.87;;
50161;SDS011;36061;48.116;11.612;2024-03-23T01:15:55;4.17;;;1.97;;
50161;SDS011;36061;48.116;11.612;2024-03-23T01:18:23;1.87;;;1.77;;
50161;SDS011;36061;48.116;11.612;2024-03-23T01:20:51;2.43;;;1.60;;
50161;SDS011;36061;48.116;11.612;2024-03-23T01:23:18;3.30;;;1.90;;
50161;SDS011;36061;48.116;11.612;2024-03-23T01:25:51;2.20;;;2.00;;
50161;SDS011;36061;48.116;11.612;2024-03-23T01:28:19;3.47;;;2.23;;
50161;SDS011;36061;48.116;11.612;2024-03-23T01:30:47;4.37;;;1.83;;
50161;SDS011;36061;48.116;11.612;2024-03-23T01:33:14;2.50;;;1.90;;
50161;SDS011;36061;48.116;11.612;2024-03-23T01:35:41;4.43;;;1.83;;
50161;SDS011;36061;48.116;11.612;2024-03-23T01:38:08;1.60;;;1.30;;
50161;SDS011;36061;48.116;11.612;2024-03-23T01:40:35;1.93;;;1.60;;
50161;SDS011;36061;48.116;11.612;2024-03-23T01:43:03;3.07;;;1.90;;
50161;SDS011;36061;48.116;11.612;2024-03-23T01:45:32;1.97;;;1.70;;
50161;SDS011;36061;48.116;11.612;2024-03-23T01:47:59;2.83;;;1.83;;
50161;SDS011;36061;48.116;11.612;2024-03-23T01:50:27;3.53;;;1.70;;
50161;SDS011;36061;48.116;11.612;2024-03-23T01:52:54;2.50;;;1.87;;
50161;SDS011;36061;48.116;11.612;2024-03-23T01:55:21;1.83;;;1.60;;
50161;SDS011;36061;48.116;11.612;2024-03-23T01:57:48;2.00;;;1.47;;
50161;SDS011;36061;48.116;11.612;2024-03-23T02:00:16;2.53;;;1.57;;
50161;SDS011;36061;48.116;11.612;2024-03-23T02:02:45;1.93;;;1.57;;
50161;SDS011;36061;48.116;11.612;2024-03-23T02:05:12;3.30;;;2.00;;
50161;SDS011;36061;48.116;11.612;2024-03-23T02:07:39;5.23;;;1.80;;
50161;SDS011;36061;48.116;11.612;2024-03-23T02:10:08;2.47;;;1.80;;
50161;SDS011;36061;48.116;11.612;2024-03-23T02:12:36;2.60;;;1.60;;
50161;SDS011;36061;48.116;11.612;2024-03-23T02:15:04;2.73;;;1.80;;
50161;SDS011;36061;48.116;11.612;2024-03-23T02:17:33;3.63;;;1.80;;
50161;SDS011;36061;48.116;11.612;2024-03-23T02:20:03;2.83;;;1.67;;
50161;SDS011;36061;48.116;11.612;2024-03-23T02:22:35;3.33;;;1.93;;
50161;SDS011;36061;48.116;11.612;2024-03-23T02:25:05;3.27;;;1.90;;
50161;SDS011;36061;48.116;11.612;2024-03-23T02:27:32;3.03;;;1.80;;
50161;SDS011;36061;48.116;11.612;2024-03-23T02:30:01;2.17;;;1.90;;
50161;SDS011;36061;48.116;11.612;2024-03-23T02:32:29;2.20;;;1.90;;
50161;SDS011;36061;48.116;11.612;2024-03-23T02:34:57;4.17;;;2.17;;
50161;SDS011;36061;48.116;11.612;2024-03-23T02:37:24;5.90;;;3.07;;
50161;SDS011;36061;48.116;11.612;2024-03-23T02:39:51;3.03;;;2.37;;
50161;SDS011;36061;48.116;11.612;2024-03-23T02:42:19;2.43;;;1.93;;
50161;SDS011;36061;48.116;11.612;2024-03-23T02:44:47;4.60;;;1.73;;
50161;SDS011;36061;48.116;11.612;2024-03-23T02:47:13;1.73;;;1.63;;
50161;SDS011;36061;48.116;11.612;2024-03-23T02:49:41;4.00;;;2.23;;
50161;SDS011;36061;48.116;11.612;2024-03-23T02:52:07;2.20;;;2.00;;
50161;SDS011;36061;48.116;11.612;2024-03-23T02:54:35;1.77;;;1.63;;
50161;SDS011;36061;48.116;11.612;2024-03-23T02:57:01;2.20;;;1.67;;
50161;SDS011;36061;48.116;11.612;2024-03-23T02:59:31;1.70;;;1.57;;
50161;SDS011;36061;48.116;11.612;2024-03-23T03:01:57;2.50;;;1.50;;
50161;SDS011;36061;48.116;11.612;2024-03-23T03:04:26;2.30;;;1.50;;
50161;SDS011;36061;48.116;11.612;2024-03-23T03:06:53;1.77;;;1.40;;
50161;SDS011;36061;48.116;11.612;2024-03-23T03:09:20;2.53;;;1.30;;
50161;SDS011;36061;48.116;11.612;2024-03-23T03:11:47;1.70;;;1.60;;
50161;SDS011;36061;48.116;11.612;2024-03-23T03:14:14;1.77;;;1.50;;
50161;SDS011;36061;48.116;11.612;2024-03-23T03:16:42;1.60;;;1.50;;
50161;SDS011;36061;48.116;11.612;2024-03-23T03:19:10;2.67;;;1.70;;
50161;SDS011;36061;48.116;11.612;2024-03-23T03:21:37;2.53;;;1.60;;
50161;SDS011;36061;48.116;11.612;2024-03-23T03:24:05;1.90;;;1.70;;
50161;SDS011;36061;48.116;11.612;2024-03-23T03:26:32;2.00;;;1.50;;
50161;SDS011;36061;48.116;11.612;2024-03-23T03:29:00;2.20;;;1.40;;
50161;SDS011;36061;48.116;11.612;2024-03-23T03:31:27;2.10;;;1.63;;
50161;SDS011;36061;48.116;11.612;2024-03-23T03:33:56;2.83;;;1.60;;
50161;SDS011;36061;48.116;11.612;2024-03-23T03:36:25;2.70;;;1.50;;
50161;SDS011;36061;48.116;11.612;2024-03-23T03:38:53;1.30;;;1.20;;
50161;SDS011;36061;48.116;11.612;2024-03-23T03:41:20;3.57;;;1.70;;
50161;SDS011;36061;48.116;11.612;2024-03-23T03:43:47;1.93;;;1.77;;
50161;SDS011;36061;48.116;11.612;2024-03-23T03:46:14;1.70;;;1.60;;
50161;SDS011;36061;48.116;11.612;2024-03-23T03:48:41;2.07;;;1.50;;
50161;SDS011;36061;48.116;11.612;2024-03-23T03:51:11;2.27;;;1.60;;
50161;SDS011;36061;48.116;11.612;2024-03-23T03:53:39;2.33;;;1.30;;
50161;SDS011;36061;48.116;11.612;2024-03-23T03:56:06;3.53;;;1.80;;
50161;SDS011;36061;48.116;11.612;2024-03-23T03:58:33;2.20;;;1.50;;
50161;SDS011;36061;48.116;11.612;2024-03-23T04:01:01;1.63;;;1.53;;
50161;SDS011;36061;48.116;11.612;2024-03-23T04:03:27;3.20;;;1.90;;
50161;SDS011;36061;48.116;11.612;2024-03-23T04:05:55;1.83;;;1.40;;
50161;SDS011;36061;48.116;11.612;2024-03-23T04:08:23;2.73;;;1.93;;
50161;SDS011;36061;48.116;11.612;2024-03-23T04:10:51;1.87;;;1.63;;
50161;SDS011;36061;48.116;11.612;2024-03-23T04:13:17;1.93;;;1.40;;
50161;SDS011;36061;48.116;11.612;2024-03-23T04:15:45;2.10;;;1.60;;
50161;SDS011;36061;48.116;11.612;2024-03-23T04:18:11;5.17;;;2.03;;
50161;SDS011;36061;48.116;11.612;2024-03-23T04:20:39;1.47;;;1.37;;
50161;SDS011;36061;48.116;11.612;2024-03-23T04:23:06;1.83;;;1.47;;
50161;SDS011;36061;48.116;11.612;2024-03-23T04:25:35;2.30;;;1.67;;
50161;SDS011;36061;48.116;11.612;2024-03-23T04:28:01;2.20;;;1.50;;
50161;SDS011;36061;48.116;11.612;2024-03-23T04:30:30;1.53;;;1.43;;
50161;SDS011;36061;48.116;11.612;2024-03-23T04:32:57;2.73;;;1.53;;
50161;SDS011;36061;48.116;11.612;2024-03-23T04:35:25;1.73;;;1.20;;
50161;SDS011;36061;48.116;11.612;2024-03-23T04:37:51;1.43;;;1.30;;
50161;SDS011;36061;48.116;11.612;2024-03-23T04:40:21;2.07;;;1.40;;
50161;SDS011;36061;48.116;11.612;2024-03-23T04:42:50;2.70;;;1.50;;
50161;SDS011;36061;48.116;11.612;2024-03-23T04:45:18;1.87;;;1.40;;
50161;SDS011;36061;48.116;11.612;2024-03-23T04:47:45;9.23;;;1.70;;
50161;SDS011;36061;48.116;11.612;2024-03-23T04:50:12;1.67;;;1.47;;
50161;SDS011;36061;48.116;11.612;2024-03-23T04:52:41;3.00;;;1.63;;
50161;SDS011;36061;48.116;11.612;2024-03-23T04:55:09;3.43;;;1.30;;
50161;SDS011;36061;48.116;11.612;2024-03-23T04:57:37;3.63;;;1.30;;
50161;SDS011;36061;48.116;11.612;2024-03-23T05:00:06;1.50;;;1.40;;
50161;SDS011;36061;48.116;11.612;2024-03-23T05:02:42;1.40;;;1.30;;
50161;SDS011;36061;48.116;11.612;2024-03-23T05:05:11;1.50;;;1.30;;
50161;SDS011;36061;48.116;11.612;2024-03-23T05:07:39;3.63;;;1.30;;
50161;SDS011;36061;48.116;11.612;2024-03-23T05:10:08;2.33;;;1.37;;
50161;SDS011;36061;48.116;11.612;2024-03-23T05:12:36;2.20;;;1.30;;
50161;SDS011;36061;48.116;11.612;2024-03-23T05:15:03;2.63;;;1.40;;
50161;SDS011;36061;48.116;11.612;2024-03-23T05:17:33;1.33;;;1.23;;
50161;SDS011;36061;48.116;11.612;2024-03-23T05:19:59;3.53;;;1.73;;
50161;SDS011;36061;48.116;11.612;2024-03-23T05:22:28;3.03;;;1.50;;
50161;SDS011;36061;48.116;11.612;2024-03-23T05:24:54;2.40;;;0.93;;
50161;SDS011;36061;48.116;11.612;2024-03-23T05:27:22;1.40;;;1.30;;
50161;SDS011;36061;48.116;11.612;2024-03-23T05:29:48;2.20;;;1.40;;
50161;SDS011;36061;48.116;11.612;2024-03-23T05:32:17;1.27;;;1.17;;
50161;SDS011;36061;48.116;11.612;2024-03-23T05:34:44;5.30;;;1.53;;
50161;SDS011;36061;48.116;11.612;2024-03-23T05:37:11;2.00;;;1.30;;
50161;SDS011;36061;48.116;11.612;2024-03-23T05:39:38;3.20;;;1.70;;
50161;SDS011;36061;48.116;11.612;2024-03-23T05:42:06;1.83;;;1.40;;
50161;SDS011;36061;48.116;11.612;2024-03-23T05:44:33;2.47;;;1.37;;
50161;SDS011;36061;48.116;11.612;2024-03-23T05:47:01;3.03;;;1.40;;
50161;SDS011;36061;48.116;11.612;2024-03-23T05:49:29;1.77;;;1.30;;
50161;SDS011;36061;48.116;11.612;2024-03-23T05:51:56;3.13;;;1.43;;
50161;SDS011;36061;48.116;11.612;2024-03-23T05:54:23;1.63;;;1.37;;
50161;SDS011;36061;48.116;11.612;2024-03-23T05:56:54;1.90;;;1.27;;
50161;SDS011;36061;48.116;11.612;2024-03-23T05:59:20;1.53;;;1.07;;
50161;SDS011;36061;48.116;11.612;2024-03-23T06:01:48;3.73;;;1.40;;
50161;SDS011;36061;48.116;11.612;2024-03-23T06:04:14;2.00;;;1.10;;
50161;SDS011;36061;48.116;11.612;2024-03-23T06:06:43;2.03;;;1.30;;
50161;SDS011;36061;48.116;11.612;2024-03-23T06:09:10;1.37;;;1.23;;
50161;SDS011;36061;48.116;11.612;2024-03-23T06:11:38;2.30;;;1.50;;
50161;SDS011;36061;48.116;11.612;2024-03-23T06:14:04;1.90;;;1.40;;
50161;SDS011;36061;48.116;11.612;2024-03-23T06:16:32;2.33;;;1.20;;
50161;SDS011;36061;48.116;11.612;2024-03-23T06:18:58;5.20;;;1.50;;
50161;SDS011;36061;48.116;11.612;2024-03-23T06:21:26;3.87;;;1.83;;
50161;SDS011;36061;48.116;11.612;2024-03-23T06:23:54;2.20;;;1.50;;
50161;SDS011;36061;48.116;11.612;2024-03-23T06:26:22;3.77;;;1.13;;
50161;SDS011;36061;48.116;11.612;2024-03-23T06:28:48;1.80;;;1.20;;
50161;SDS011;36061;48.116;11.612;2024-03-23T06:31:16;2.43;;;1.30;;
50161;SDS011;36061;48.116;11.612;2024-03-23T06:33:43;1.40;;;1.20;;
50161;SDS011;36061;48.116;11.612;2024-03-23T06:36:11;3.07;;;1.17;;
50161;SDS011;36061;48.116;11.612;2024-03-23T06:38:37;1.60;;;1.50;;
50161;SDS011;36061;48.116;11.612;2024-03-23T06:41:06;1.57;;;1.00;;
50161;SDS011;36061;48.116;11.612;2024-03-23T06:43:33;1.13;;;0.90;;
50161;SDS011;36061;48.116;11.612;2024-03-23T06:46:01;1.40;;;1.07;;
50161;SDS011;36061;48.116;11.612;2024-03-23T06:48:29;1.47;;;0.90;;
50161;SDS011;36061;48.116;11.612;2024-03-23T06:50:57;2.30;;;1.17;;
50161;SDS011;36061;48.116;11.612;2024-03-23T06:53:23;1.80;;;1.10;;
50161;SDS011;36061;48.116;11.612;2024-03-23T06:55:51;4.00;;;1.17;;
50161;SDS011;36061;48.116;11.612;2024-03-23T06:58:20;1.53;;;1.43;;
50161;SDS011;36061;48.116;11.612;2024-03-23T07:00:48;3.37;;;1.20;;
50161;SDS011;36061;48.116;11.612;2024-03-23T07:03:15;1.80;;;1.40;;
50161;SDS011;36061;48.116;11.612;2024-03-23T07:05:43;2.43;;;1.10;;
50161;SDS011;36061;48.116;11.612;2024-03-23T07:08:11;3.10;;;1.10;;
50161;SDS011;36061;48.116;11.612;2024-03-23T07:10:44;2.77;;;1.27;;
50161;SDS011;36061;48.116;11.612;2024-03-23T07:13:10;2.63;;;1.00;;
50161;SDS011;36061;48.116;11.612;2024-03-23T07:15:40;1.60;;;1.47;;
50161;SDS011;36061;48.116;11.612;2024-03-23T07:18:06;1.63;;;1.50;;
50161;SDS011;36061;48.116;11.612;2024-03-23T07:20:34;2.13;;;1.20;;
50161;SDS011;36061;48.116;11.612;2024-03-23T07:23:00;3.03;;;1.20;;
50161;SDS011;36061;48.116;11.612;2024-03-23T07:25:28;1.30;;;1.13;;
50161;SDS011;36061;48.116;11.612;2024-03-23T07:27:54;2.53;;;1.30;;
50161;SDS011;36061;48.116;11.612;2024-03-23T07:30:22;3.10;;;1.20;;
50161;SDS011;36061;48.116;11.612;2024-03-23T07:32:50;3.10;;;1.23;;
50161;SDS011;36061;48.116;11.612;2024-03-23T07:35:17;1.83;;;1.40;;
50161;SDS011;36061;48.116;11.612;2024-03-23T07:37:44;1.17;;;1.07;;
50161;SDS011;36061;48.116;11.612;2024-03-23T07:40:12;2.27;;;1.50;;
50161;SDS011;36061;48.116;11.612;2024-03-23T07:42:39;1.83;;;1.40;;
50161;SDS011;36061;48.116;11.612;2024-03-23T07:45:07;4.43;;;1.60;;
50161;SDS011;36061;48.116;11.612;2024-03-23T07:47:35;4.40;;;1.63;;
50161;SDS011;36061;48.116;11.612;2024-03-23T07:50:04;2.60;;;1.53;;
50161;SDS011;36061;48.116;11.612;2024-03-23T07:52:31;1.93;;;1.30;;
50161;SDS011;36061;48.116;11.612;2024-03-23T07:54:59;3.70;;;1.43;;
50161;SDS011;36061;48.116;11.612;2024-03-23T07:57:25;2.73;;;1.43;;
50161;SDS011;36061;48.116;11.612;2024-03-23T07:59:53;2.63;;;1.30;;
50161;SDS011;36061;48.116;11.612;2024-03-23T08:02:19;1.40;;;1.17;;
50161;SDS011;36061;48.116;11.612;2024-03-23T08:04:47;3.77;;;1.50;;
50161;SDS011;36061;48.116;11.612;2024-03-23T08:07:15;1.77;;;1.33;;
50161;SDS011;36061;48.116;11.612;2024-03-23T08:09:43;1.73;;;1.30;;
50161;SDS011;36061;48.116;11.612;2024-03-23T08:12:10;2.03;;;1.40;;
50161;SDS011;36061;48.116;11.612;2024-03-23T08:14:37;2.83;;;1.67;;
50161;SDS011;36061;48.116;11.612;2024-03-23T08:17:04;2.40;;;1.40;;
50161;SDS011;36061;48.116;11.612;2024-03-23T08:19:31;1.60;;;1.20;;
50161;SDS011;36061;48.116;11.612;2024-03-23T08:21:58;2.93;;;1.63;;
50161;SDS011;36061;48.116;11.612;2024-03-23T08:24:27;1.40;;;1.20;;
50161;SDS011;36061;48.116;11.612;2024-03-23T08:26:54;1.87;;;1.50;;
50161;SDS011;36061;48.116;11.612;2024-03-23T08:29:21;3.20;;;1.53;;
50161;SDS011;36061;48.116;11.612;2024-03-23T08:31:48;2.00;;;1.60;;
50161;SDS011;36061;48.116;11.612;2024-03-23T08:34:15;2.80;;;1.67;;
50161;SDS011;36061;48.116;11.612;2024-03-23T08:36:42;2.83;;;1.30;;
50161;SDS011;36061;48.116;11.612;2024-03-23T08:39:09;2.57;;;1.70;;
50161;SDS011;36061;48.116;11.612;2024-03-23T08:41:38;2.40;;;1.40;;
50161;SDS011;36061;48.116;11.612;2024-03-23T08:44:05;2.43;;;1.80;;
50161;SDS011;36061;48.116;11.612;2024-03-23T08:46:32;2.10;;;1.13;;
50161;SDS011;36061;48.116;11.612;2024-03-23T08:48:59;2.90;;;1.30;;
50161;SDS011;36061;48.116;11.612;2024-03-23T08:51:27;4.03;;;1.70;;
50161;SDS011;36061;48.116;11.612;2024-03-23T08:53:54;2.40;;;1.63;;
50161;SDS011;36061;48.116;11.612;2024-03-23T08:56:21;2.07;;;1.10;;
50161;SDS011;36061;48.116;11.612;2024-03-23T08:58:50;1.73;;;1.57;;
50161;SDS011;36061;48.116;11.612;2024-03-23T09:01:16;2.00;;;1.50;;
50161;SDS011;36061;48.116;11.612;2024-03-23T09:03:44;1.97;;;1.63;;
50161;SDS011;36061;48.116;11.612;2024-03-23T09:06:11;2.00;;;1.80;;
50161;SDS011;36061;48.116;11.612;2024-03-23T09:08:40;1.77;;;1.50;;
50161;SDS011;36061;48.116;11.612;2024-03-23T09:11:07;2.00;;;1.40;;
50161;SDS011;36061;48.116;11.612;2024-03-23T09:13:36;1.57;;;1.47;;
50161;SDS011;36061;48.116;11.612;2024-03-23T09:16:05;1.87;;;1.60;;
50161;SDS011;36061;48.116;11.612;2024-03-23T09:18:35;4.17;;;1.93;;
50161;SDS011;36061;48.116;11.612;2024-03-23T09:21:02;3.70;;;2.10;;
50161;SDS011;36061;48.116;11.612;2024-03-23T09:23:30;3.50;;;2.13;;
50161;SDS011;36061;48.116;11.612;2024-03-23T09:25:57;4.07;;;3.00;;
50161;SDS011;36061;48.116;11.612;2024-03-23T09:28:29;3.13;;;2.30;;
50161;SDS011;36061;48.116;11.612;2024-03-23T09:31:01;2.77;;;2.33;;
50161;SDS011;36061;48.116;11.612;2024-03-23T09:33:31;4.37;;;2.93;;
50161;SDS011;36061;48.116;11.612;2024-03-23T09:35:58;3.27;;;1.73;;
50161;SDS011;36061;48.116;11.612;2024-03-23T09:38:30;1.93;;;1.73;;
50161;SDS011;36061;48.116;11.612;2024-03-23T09:40:56;2.47;;;1.83;;
50161;SDS011;36061;48.116;11.612;2024-03-23T09:43:24;1.40;;;1.13;;
50161;SDS011;36061;48.116;11.612;2024-03-23T09:45:51;2.77;;;1.57;;
50161;SDS011;36061;48.116;11.612;2024-03-23T09:48:19;0.77;;;0.70;;
50161;SDS011;36061;48.116;11.612;2024-03-23T09:50:48;1.50;;;0.70;;
50161;SDS011;36061;48.116;11.612;2024-03-23T09:53:15;1.10;;;1.00;;
50161;SDS011;36061;48.116;11.612;2024-03-23T09:55:43;0.90;;;0.70;;
50161;SDS011;36061;48.116;11.612;2024-03-23T09:58:12;2.77;;;0.90;;
50161;SDS011;36061;48.116;11.612;2024-03-23T10:00:39;1.20;;;1.10;;
50161;SDS011;36061;48.116;11.612;2024-03-23T10:03:07;1.53;;;1.13;;
50161;SDS011;36061;48.116;11.612;2024-03-23T10:05:34;3.00;;;1.40;;
50161;SDS011;36061;48.116;11.612;2024-03-23T10:08:03;2.00;;;1.00;;
50161;SDS011;36061;48.116;11.612;2024-03-23T10:10:44;1.27;;;0.97;;
50161;SDS011;36061;48.116;11.612;2024-03-23T10:13:23;1.67;;;1.00;;
50161;SDS011;36061;48.116;11.612;2024-03-23T10:15:54;2.20;;;1.20;;
50161;SDS011;36061;48.116;11.612;2024-03-23T10:18:23;1.10;;;0.97;;
50161;SDS011;36061;48.116;11.612;2024-03-23T10:20:51;1.40;;;0.93;;
50161;SDS011;36061;48.116;11.612;2024-03-23T10:23:34;1.50;;;1.10;;
50161;SDS011;36061;48.116;11.612;2024-03-23T10:26:12;2.63;;;1.50;;
50161;SDS011;36061;48.116;11.612;2024-03-23T10:28:53;1.10;;;1.00;;
50161;SDS011;36061;48.116;11.612;2024-03-23T10:31:23;1.63;;;1.20;;
50161;SDS011;36061;48.116;11.612;2024-03-23T10:33:51;1.20;;;1.10;;
50161;SDS011;36061;48.116;11.612;2024-03-23T10:36:20;1.10;;;0.80;;
50161;SDS011;36061;48.116;11.612;2024-03-23T10:38:50;2.63;;;1.10;;
50161;SDS011;36061;48.116;11.612;2024-03-23T10:41:17;1.33;;;1.07;;
50161;SDS011;36061;48.116;11.612;2024-03-23T10:43:47;2.53;;;1.10;;
50161;SDS011;36061;48.116;11.612;2024-03-23T10:46:14;2.33;;;1.10;;
50161;SDS011;36061;48.116;11.612;2024-03-23T10:48:42;1.67;;;1.00;;
50161;SDS011;36061;48.116;11.612;2024-03-23T10:51:09;1.70;;;0.87;;
50161;SDS011;36061;48.116;11.612;2024-03-23T10:53:37;1.30;;;0.70;;
50161;SDS011;36061;48.116;11.612;2024-03-23T10:56:06;0.77;;;0.77;;
50161;SDS011;36061;48.116;11.612;2024-03-23T10:58:37;0.77;;;0.70;;
50161;SDS011;36061;48.116;11.612;2024-03-23T11:01:06;2.10;;;0.67;;
50161;SDS011;36061;48.116;11.612;2024-03-23T11:03:39;1.70;;;0.90;;
50161;SDS011;36061;48.116;11.612;2024-03-23T11:06:10;2.33;;;0.60;;
50161;SDS011;36061;48.116;11.612;2024-03-23T11:08:57;5.83;;;0.97;;
50161;SDS011;36061;48.116;11.612;2024-03-23T11:11:25;1.47;;;1.30;;
50161;SDS011;36061;48.116;11.612;2024-03-23T11:13:54;0.67;;;0.67;;
50161;SDS011;36061;48.116;11.612;2024-03-23T11:16:24;2.97;;;1.33;;
50161;SDS011;36061;48.116;11.612;2024-03-23T11:18:58;3.27;;;0.97;;
50161;SDS011;36061;48.116;11.612;2024-03-23T11:21:59;0.80;;;0.50;;
50161;SDS011;36061;48.116;11.612;2024-03-23T11:24:27;1.97;;;1.17;;
50161;SDS011;36061;48.116;11.612;2024-03-23T11:26:55;2.80;;;0.90;;
50161;SDS011;36061;48.116;11.612;2024-03-23T11:29:26;1.30;;;0.60;;
50161;SDS011;36061;48.116;11.612;2024-03-23T11:31:53;0.97;;;0.90;;
50161;SDS011;36061;48.116;11.612;2024-03-23T11:34:20;0.80;;;0.77;;
50161;SDS011;36061;48.116;11.612;2024-03-23T11:36:47;1.27;;;0.90;;
50161;SDS011;36061;48.116;11.612;2024-03-23T11:39:16;1.57;;;1.03;;
50161;SDS011;36061;48.116;11.612;2024-03-23T11:41:47;0.73;;;0.73;;
50161;SDS011;36061;48.116;11.612;2024-03-23T11:44:17;0.80;;;0.80;;
50161;SDS011;36061;48.116;11.612;2024-03-23T11:46:44;1.20;;;0.87;;
50161;SDS011;36061;48.116;11.612;2024-03-23T11:49:22;2.70;;;1.00;;
50161;SDS011;36061;48.116;11.612;2024-03-23T11:51:49;1.47;;;1.10;;
50161;SDS011;36061;48.116;11.612;2024-03-23T11:54:19;1.37;;;0.90;;
50161;SDS011;36061;48.116;11.612;2024-03-23T11:56:56;0.93;;;0.83;;
50161;SDS011;36061;48.116;11.612;2024-03-23T11:59:33;1.10;;;1.00;;
50161;SDS011;36061;48.116;11.612;2024-03-23T12:02:00;1.77;;;1.30;;
50161;SDS011;36061;48.116;11.612;2024-03-23T12:04:32;1.57;;;1.00;;
50161;SDS011;36061;48.116;11.612;2024-03-23T12:07:13;1.47;;;1.07;;
50161;SDS011;36061;48.116;11.612;2024-03-23T12:09:44;2.23;;;1.00;;
50161;SDS011;36061;48.116;11.612;2024-03-23T12:12:13;1.53;;;1.10;;
50161;SDS011;36061;48.116;11.612;2024-03-23T12:14:43;2.20;;;1.20;;
50161;SDS011;36061;48.116;11.612;2024-03-23T12:17:11;2.03;;;0.90;;
50161;SDS011;36061;48.116;11.612;2024-03-23T12:19:39;1.97;;;1.00;;
50161;SDS011;36061;48.116;11.612;2024-03-23T12:22:07;2.43;;;1.10;;
50161;SDS011;36061;48.116;11.612;2024-03-23T12:24:35;1.70;;;0.90;;
50161;SDS011;36061;48.116;11.612;2024-03-23T12:27:02;1.77;;;1.10;;
50161;SDS011;36061;48.116;11.612;2024-03-23T12:29:30;2.20;;;1.30;;
50161;SDS011;36061;48.116;11.612;2024-03-23T12:32:00;5.67;;;1.37;;
50161;SDS011;36061;48.116;11.612;2024-03-23T12:34:30;4.43;;;1.20;;
50161;SDS011;36061;48.116;11.612;2024-03-23T12:36:57;2.73;;;1.43;;
50161;SDS011;36061;48.116;11.612;2024-03-23T12:39:25;2.63;;;1.50;;
50161;SDS011;36061;48.116;11.612;2024-03-23T12:41:51;2.47;;;1.40;;
50161;SDS011;36061;48.116;11.612;2024-03-23T12:44:19;2.57;;;1.33;;
50161;SDS011;36061;48.116;11.612;2024-03-23T12:46:46;1.30;;;1.20;;
50161;SDS011;36061;48.116;11.612;2024-03-23T12:49:15;1.53;;;1.27;;
50161;SDS011;36061;48.116;11.612;2024-03-23T12:51:42;1.37;;;1.27;;
50161;SDS011;36061;48.116;11.612;2024-03-23T12:54:19;2.57;;;1.60;;
50161;SDS011;36061;48.116;11.612;2024-03-23T12:56:46;3.07;;;1.53;;
50161;SDS011;36061;48.116;11.612;2024-03-23T12:59:13;2.97;;;1.37;;
50161;SDS011;36061;48.116;11.612;2024-03-23T13:01:41;2.83;;;1.47;;
50161;SDS011;36061;48.116;11.612;2024-03-23T13:04:08;1.97;;;1.20;;
50161;SDS011;36061;48.116;11.612;2024-03-23T13:06:37;3.37;;;1.40;;
50161;SDS011;36061;48.116;11.612;2024-03-23T13:09:04;3.77;;;1.63;;
50161;SDS011;36061;48.116;11.612;2024-03-23T13:11:31;4.07;;;1.80;;
50161;SDS011;36061;48.116;11.612;2024-03-23T13:13:59;3.37;;;1.43;;
50161;SDS011;36061;48.116;11.612;2024-03-23T13:16:25;1.90;;;1.43;;
50161;SDS011;36061;48.116;11.612;2024-03-23T13:18:53;2.70;;;1.43;;
50161;SDS011;36061;48.116;11.612;2024-03-23T13:21:19;2.83;;;1.47;;
50161;SDS011;36061;48.116;11.612;2024-03-23T13:23:48;3.80;;;1.70;;
50161;SDS011;36061;48.116;11.612;2024-03-23T13:26:16;2.23;;;1.40;;
50161;SDS011;36061;48.116;11.612;2024-03-23T13:28:44;6.67;;;1.40;;
50161;SDS011;36061;48.116;11.612;2024-03-23T13:31:10;3.13;;;1.43;;
50161;SDS011;36061;48.116;11.612;2024-03-23T13:33:38;1.67;;;1.27;;
50161;SDS011;36061;48.116;11.612;2024-03-23T13:36:05;5.27;;;1.40;;
50161;SDS011;36061;48.116;11.612;2024-03-23T13:38:33;2.57;;;1.53;;
50161;SDS011;36061;48.116;11.612;2024-03-23T13:41:01;4.77;;;1.40;;
50161;SDS011;36061;48.116;11.612;2024-03-23T13:43:30;3.03;;;1.53;;
50161;SDS011;36061;48.116;11.612;2024-03-23T13:45:57;4.93;;;2.57;;
50161;SDS011;36061;48.116;11.612;2024-03-23T13:48:26;5.90;;;1.80;;
50161;SDS011;36061;48.116;11.612;2024-03-23T13:50:57;4.20;;;1.50;;
50161;SDS011;36061;48.116;11.612;2024-03-23T13:53:25;3.47;;;1.30;;
50161;SDS011;36061;48.116;11.612;2024-03-23T13:55:52;3.50;;;1.40;;
50161;SDS011;36061;48.116;11.612;2024-03-23T13:58:21;3.30;;;1.73;;
50161;SDS011;36061;48.116;11.612;2024-03-23T14:00:51;3.40;;;1.50;;
50161;SDS011;36061;48.116;11.612;2024-03-23T14:03:18;2.10;;;1.37;;
50161;SDS011;36061;48.116;11.612;2024-03-23T14:05:45;5.03;;;1.87;;
50161;SDS011;36061;48.116;11.612;2024-03-23T14:08:13;4.77;;;2.00;;
50161;SDS011;36061;48.116;11.612;2024-03-23T14:10:40;2.77;;;1.67;;
50161;SDS011;36061;48.116;11.612;2024-03-23T14:13:08;4.33;;;1.50;;
50161;SDS011;36061;48.116;11.612;2024-03-23T14:15:36;3.30;;;2.10;;
50161;SDS011;36061;48.116;11.612;2024-03-23T14:18:04;3.23;;;1.70;;
50161;SDS011;36061;48.116;11.612;2024-03-23T14:20:31;3.77;;;2.40;;
50161;SDS011;36061;48.116;11.612;2024-03-23T14:22:59;2.40;;;1.70;;
50161;SDS011;36061;48.116;11.612;2024-03-23T14:25:26;2.90;;;1.93;;
50161;SDS011;36061;48.116;11.612;2024-03-23T14:27:54;2.83;;;1.73;;
50161;SDS011;36061;48.116;11.612;2024-03-23T14:30:21;5.93;;;2.13;;
50161;SDS011;36061;48.116;11.612;2024-03-23T14:32:50;2.90;;;1.90;;
50161;SDS011;36061;48.116;11.612;2024-03-23T14:35:17;4.50;;;1.90;;
50161;SDS011;36061;48.116;11.612;2024-03-23T14:37:44;6.17;;;2.63;;
50161;SDS011;36061;48.116;11.612;2024-03-23T14:40:12;4.30;;;2.30;;
50161;SDS011;36061;48.116;11.612;2024-03-23T14:42:40;5.27;;;2.40;;
50161;SDS011;36061;48.116;11.612;2024-03-23T14:45:07;5.27;;;2.30;;
50161;SDS011;36061;48.116;11.612;2024-03-23T14:47:37;5.50;;;2.07;;
50161;SDS011;36061;48.116;11.612;2024-03-23T14:50:05;3.73;;;1.90;;
50161;SDS011;36061;48.116;11.612;2024-03-23T14:52:37;3.83;;;2.20;;
50161;SDS011;36061;48.116;11.612;2024-03-23T14:55:04;2.60;;;1.70;;
50161;SDS011;36061;48.116;11.612;2024-03-23T14:57:34;3.17;;;1.80;;
50161;SDS011;36061;48.116;11.612;2024-03-23T15:00:01;2.53;;;1.37;;
50161;SDS011;36061;48.116;11.612;2024-03-23T15:02:30;2.50;;;1.13;;
50161;SDS011;36061;48.116;11.612;2024-03-23T15:04:58;2.27;;;1.47;;
50161;SDS011;36061;48.116;11.612;2024-03-23T15:07:27;2.20;;;1.40;;
50161;SDS011;36061;48.116;11.612;2024-03-23T15:09:54;2.83;;;1.40;;
50161;SDS011;36061;48.116;11.612;2024-03-23T15:12:21;1.70;;;1.20;;
50161;SDS011;36061;48.116;11.612;2024-03-23T15:14:48;2.17;;;1.20;;
50161;SDS011;36061;48.116;11.612;2024-03-23T15:17:15;4.73;;;1.60;;
50161;SDS011;36061;48.116;11.612;2024-03-23T15:19:44;3.17;;;1.80;;
50161;SDS011;36061;48.116;11.612;2024-03-23T15:22:18;2.90;;;1.37;;
50161;SDS011;36061;48.116;11.612;2024-03-23T15:24:46;2.97;;;1.37;;
50161;SDS011;36061;48.116;11.612;2024-03-23T15:27:14;1.93;;;1.17;;
50161;SDS011;36061;48.116;11.612;2024-03-23T15:29:42;1.80;;;1.20;;
50161;SDS011;36061;48.116;11.612;2024-03-23T15:32:11;3.47;;;1.47;;